Home > Products > Valid Products > TAF

000
FTUS43 KMKX 261347 AAB
TAFMKE
TAF AMD
KMKE 261347Z 2614/2718 00000KT 3SM BR OVC012
     FM261500 10003KT P6SM BKN015
     FM262200 03004KT P6SM OVC035
     FM270200 33004KT P6SM SCT035 OVC100
     FM270900 30008KT 6SM -SN OVC040
     FM271500 31012KT P6SM BKN050=



000
FTUS43 KMKX 261347 AAB
TAFMKE
TAF AMD
KMKE 261347Z 2614/2718 00000KT 3SM BR OVC012
     FM261500 10003KT P6SM BKN015
     FM262200 03004KT P6SM OVC035
     FM270200 33004KT P6SM SCT035 OVC100
     FM270900 30008KT 6SM -SN OVC040
     FM271500 31012KT P6SM BKN050=



000
FTUS43 KMKX 261259 AAA
TAFMSN
TAF AMD
KMSN 261259Z 2613/2712 16006KT 3SM BR OVC004
     FM261500 11005KT P6SM BKN008 BKN200
     FM261700 11005KT P6SM SCT020 BKN110
     FM262100 06004KT P6SM OVC020
     FM270600 31005KT 6SM -SN OVC035
     FM271100 31009KT P6SM BKN030=



000
FTUS43 KMKX 261259 AAA
TAFMSN
TAF AMD
KMSN 261259Z 2613/2712 16006KT 3SM BR OVC004
     FM261500 11005KT P6SM BKN008 BKN200
     FM261700 11005KT P6SM SCT020 BKN110
     FM262100 06004KT P6SM OVC020
     FM270600 31005KT 6SM -SN OVC035
     FM271100 31009KT P6SM BKN030=



000
FTUS43 KMKX 261238 AAA
TAFMKE
TAF AMD
KMKE 261238Z 2613/2718 22007KT 2SM BR MIFG FEW002 OVC011
     FM261500 10003KT P6SM BKN015
     FM262200 03004KT P6SM OVC035
     FM270200 33004KT P6SM SCT035 OVC100
     FM270900 30008KT 6SM -SN OVC040
     FM271500 31012KT P6SM BKN050=



000
FTUS43 KMKX 261238 AAA
TAFMKE
TAF AMD
KMKE 261238Z 2613/2718 22007KT 2SM BR MIFG FEW002 OVC011
     FM261500 10003KT P6SM BKN015
     FM262200 03004KT P6SM OVC035
     FM270200 33004KT P6SM SCT035 OVC100
     FM270900 30008KT 6SM -SN OVC040
     FM271500 31012KT P6SM BKN050=



000
FTUS43 KMKX 261120
TAFMSN
TAF
KMSN 261120Z 2612/2712 11004KT 6SM BR SCT004
     FM261500 11005KT P6SM SCT008 BKN200
     FM261700 11005KT P6SM SCT020 BKN110
     FM262100 06004KT P6SM OVC020
     FM270600 31005KT 6SM -SN OVC035
     FM271100 31009KT P6SM BKN030=



000
FTUS43 KMKX 261120
TAFMKE
TAF
KMKE 261120Z 2612/2718 13003KT 5SM BR SCT008
     FM261300 13003KT 6SM BR BKN010
     FM261600 10003KT P6SM BKN025
     FM262200 03004KT P6SM OVC035
     FM270200 33004KT P6SM SCT035 OVC100
     FM270900 30008KT 6SM -SN OVC040
     FM271500 31012KT P6SM BKN050=



000
FTUS43 KMKX 261120
TAFMKE
TAF
KMKE 261120Z 2612/2718 13003KT 5SM BR SCT008
     FM261300 13003KT 6SM BR BKN010
     FM261600 10003KT P6SM BKN025
     FM262200 03004KT P6SM OVC035
     FM270200 33004KT P6SM SCT035 OVC100
     FM270900 30008KT 6SM -SN OVC040
     FM271500 31012KT P6SM BKN050=



000
FTUS43 KMKX 261120
TAFMSN
TAF
KMSN 261120Z 2612/2712 11004KT 6SM BR SCT004
     FM261500 11005KT P6SM SCT008 BKN200
     FM261700 11005KT P6SM SCT020 BKN110
     FM262100 06004KT P6SM OVC020
     FM270600 31005KT 6SM -SN OVC035
     FM271100 31009KT P6SM BKN030=



000
FTUS43 KMKX 261020 AAA
TAFMSN
TAF AMD
KMSN 261020Z 2610/2706 16005KT P6SM SCT004 BKN200
     FM261400 13006KT P6SM SCT008 BKN200
     FM261600 12007KT P6SM FEW020 BKN150
     FM262100 06004KT P6SM OVC050
     FM270400 03004KT P6SM OVC030=



000
FTUS43 KMKX 261020 AAA
TAFMSN
TAF AMD
KMSN 261020Z 2610/2706 16005KT P6SM SCT004 BKN200
     FM261400 13006KT P6SM SCT008 BKN200
     FM261600 12007KT P6SM FEW020 BKN150
     FM262100 06004KT P6SM OVC050
     FM270400 03004KT P6SM OVC030=



000
FTUS43 KMKX 261016 AAA
TAFMKE
TAF AMD
KMKE 261016Z 2610/2712 00000KT 5SM BR SCT015
     FM261400 16004KT P6SM BKN015
     FM270000 04004KT P6SM OVC025
     FM270900 30006KT P6SM OVC030=



000
FTUS43 KMKX 261016 AAA
TAFMKE
TAF AMD
KMKE 261016Z 2610/2712 00000KT 5SM BR SCT015
     FM261400 16004KT P6SM BKN015
     FM270000 04004KT P6SM OVC025
     FM270900 30006KT P6SM OVC030=



000
FTUS43 KMKX 260530
TAFMSN
TAF
KMSN 260530Z 2606/2706 16005KT P6SM SCT250
     FM260900 13006KT P6SM FEW070 BKN200
     FM261600 12007KT P6SM FEW020 BKN150
     FM262100 06004KT P6SM OVC050
     FM270400 03004KT P6SM OVC030=



000
FTUS43 KMKX 260530
TAFMKE
TAF
KMKE 260530Z 2606/2712 19004KT P6SM OVC014
      TEMPO 2607/2608 SCT014
     FM260800 18003KT P6SM SCT015 SCT250
     FM261400 16004KT P6SM BKN015
     FM270000 04004KT P6SM OVC025
     FM270900 30006KT P6SM OVC030=



000
FTUS43 KMKX 260530
TAFMSN
TAF
KMSN 260530Z 2606/2706 16005KT P6SM SCT250
     FM260900 13006KT P6SM FEW070 BKN200
     FM261600 12007KT P6SM FEW020 BKN150
     FM262100 06004KT P6SM OVC050
     FM270400 03004KT P6SM OVC030=



000
FTUS43 KMKX 260530
TAFMKE
TAF
KMKE 260530Z 2606/2712 19004KT P6SM OVC014
      TEMPO 2607/2608 SCT014
     FM260800 18003KT P6SM SCT015 SCT250
     FM261400 16004KT P6SM BKN015
     FM270000 04004KT P6SM OVC025
     FM270900 30006KT P6SM OVC030=



000
FTUS43 KMKX 260332 AAA
TAFMKE
TAF AMD
KMKE 260332Z 2604/2706 22004KT P6SM BKN018
      TEMPO 2606/2608 SCT018
     FM260800 20004KT P6SM SCT022
     FM261500 15005KT P6SM SCT015 BKN200
     FM262000 VRB03KT P6SM BKN120
     FM270000 34005KT P6SM SCT025 BKN120=



000
FTUS43 KMKX 260332 AAA
TAFMKE
TAF AMD
KMKE 260332Z 2604/2706 22004KT P6SM BKN018
      TEMPO 2606/2608 SCT018
     FM260800 20004KT P6SM SCT022
     FM261500 15005KT P6SM SCT015 BKN200
     FM262000 VRB03KT P6SM BKN120
     FM270000 34005KT P6SM SCT025 BKN120=



000
FTUS43 KMKX 252323
TAFMKE
TAF
KMKE 252323Z 2600/2706 24007KT P6SM OVC015
      TEMPO 2602/2604 SCT015
     FM260400 22004KT P6SM SCT018
     FM261500 15005KT P6SM BKN200
     FM262000 VRB03KT P6SM BKN120
     FM270000 34005KT P6SM SCT025 BKN120=



000
FTUS43 KMKX 252323
TAFMSN
TAF
KMSN 252323Z 2600/2624 23004KT P6SM SCT015
      TEMPO 2600/2601 BKN015
     FM260200 19003KT P6SM SCT015
     FM261300 11004KT P6SM BKN200
     FM261700 VRB04KT P6SM BKN120=



000
FTUS43 KMKX 252323
TAFMSN
TAF
KMSN 252323Z 2600/2624 23004KT P6SM SCT015
      TEMPO 2600/2601 BKN015
     FM260200 19003KT P6SM SCT015
     FM261300 11004KT P6SM BKN200
     FM261700 VRB04KT P6SM BKN120=



000
FTUS43 KMKX 252323
TAFMKE
TAF
KMKE 252323Z 2600/2706 24007KT P6SM OVC015
      TEMPO 2602/2604 SCT015
     FM260400 22004KT P6SM SCT018
     FM261500 15005KT P6SM BKN200
     FM262000 VRB03KT P6SM BKN120
     FM270000 34005KT P6SM SCT025 BKN120=



000
FTUS43 KMKX 252238 AAB
TAFMSN
TAF AMD
KMSN 252238Z 2523/2618 25005KT P6SM BKN015
      TEMPO 2523/2601 SCT015
     FM260100 VRB02KT P6SM SCT018
     FM261300 10004KT P6SM BKN200=



000
FTUS43 KMKX 251957 AAA
TAFMSN
TAF AMD
KMSN 251957Z 2520/2618 29006KT P6SM OVC015
     FM252200 26005KT P6SM SCT020
     FM260000 VRB02KT P6SM SCT020
     FM261300 10004KT P6SM BKN200=



000
FTUS43 KMKX 251957 AAA
TAFMKE
TAF AMD
KMKE 251957Z 2520/2624 28009KT P6SM OVC015
     FM260100 VRB03KT P6SM SCT025
     FM261500 15005KT P6SM BKN200
     FM262000 VRB03KT P6SM BKN120=



000
FTUS43 KMKX 251957 AAA
TAFMKE
TAF AMD
KMKE 251957Z 2520/2624 28009KT P6SM OVC015
     FM260100 VRB03KT P6SM SCT025
     FM261500 15005KT P6SM BKN200
     FM262000 VRB03KT P6SM BKN120=



000
FTUS43 KMKX 251957 AAA
TAFMSN
TAF AMD
KMSN 251957Z 2520/2618 29006KT P6SM OVC015
     FM252200 26005KT P6SM SCT020
     FM260000 VRB02KT P6SM SCT020
     FM261300 10004KT P6SM BKN200=



000
FTUS43 KMKX 251741
TAFMSN
TAF
KMSN 251741Z 2518/2618 26006KT P6SM OVC015
     FM260000 VRB02KT P6SM SCT020
     FM261300 10004KT P6SM BKN200=



000
FTUS43 KMKX 251741
TAFMKE
TAF
KMKE 251741Z 2518/2624 28009KT P6SM OVC015
     FM260000 24005KT P6SM BKN020
     FM260300 VRB03KT P6SM SCT025
     FM261500 15005KT P6SM BKN200
     FM262000 VRB03KT P6SM BKN120=



000
FTUS43 KMKX 251741
TAFMSN
TAF
KMSN 251741Z 2518/2618 26006KT P6SM OVC015
     FM260000 VRB02KT P6SM SCT020
     FM261300 10004KT P6SM BKN200=



000
FTUS43 KMKX 251741
TAFMKE
TAF
KMKE 251741Z 2518/2624 28009KT P6SM OVC015
     FM260000 24005KT P6SM BKN020
     FM260300 VRB03KT P6SM SCT025
     FM261500 15005KT P6SM BKN200
     FM262000 VRB03KT P6SM BKN120=



000
FTUS43 KMKX 251504 AAC
TAFMSN
TAF AMD
KMSN 251504Z 2515/2612 29007KT P6SM BKN018
     FM251900 28008KT P6SM BKN025
     FM260200 20004KT P6SM SCT150
     FM260900 14004KT P6SM BKN200
     FM261100 13005KT P6SM BKN200=



000
FTUS43 KMKX 251504 AAB
TAFMKE
TAF AMD
KMKE 251504Z 2515/2618 27010KT P6SM BKN018
     FM251900 26008KT P6SM BKN025
     FM252200 25007KT P6SM BKN020
     FM260600 VRB03KT P6SM SCT140=



000
FTUS43 KMKX 251504 AAC
TAFMSN
TAF AMD
KMSN 251504Z 2515/2612 29007KT P6SM BKN018
     FM251900 28008KT P6SM BKN025
     FM260200 20004KT P6SM SCT150
     FM260900 14004KT P6SM BKN200
     FM261100 13005KT P6SM BKN200=



000
FTUS43 KMKX 251504 AAB
TAFMKE
TAF AMD
KMKE 251504Z 2515/2618 27010KT P6SM BKN018
     FM251900 26008KT P6SM BKN025
     FM252200 25007KT P6SM BKN020
     FM260600 VRB03KT P6SM SCT140=



000
FTUS43 KMKX 251359 AAA
TAFMKE
TAF AMD
KMKE 251359Z 2514/2618 27009KT P6SM -SN SCT015 BKN030
     FM251600 27010KT P6SM OVC018
     FM251900 26008KT P6SM BKN035
     FM252200 25007KT P6SM SCT140
     FM260600 VRB03KT P6SM SCT140=



000
FTUS43 KMKX 251359 AAA
TAFMKE
TAF AMD
KMKE 251359Z 2514/2618 27009KT P6SM -SN SCT015 BKN030
     FM251600 27010KT P6SM OVC018
     FM251900 26008KT P6SM BKN035
     FM252200 25007KT P6SM SCT140
     FM260600 VRB03KT P6SM SCT140=



000
FTUS43 KMKX 251358 AAB
TAFMSN
TAF AMD
KMSN 251358Z 2514/2612 29007KT P6SM BKN018
     FM251900 28008KT P6SM SCT025
     FM260200 20004KT P6SM SCT150
     FM260900 14004KT P6SM BKN200
     FM261100 13005KT P6SM BKN200=



000
FTUS43 KMKX 251358 AAB
TAFMSN
TAF AMD
KMSN 251358Z 2514/2612 29007KT P6SM BKN018
     FM251900 28008KT P6SM SCT025
     FM260200 20004KT P6SM SCT150
     FM260900 14004KT P6SM BKN200
     FM261100 13005KT P6SM BKN200=



000
FTUS43 KMKX 251256 AAA
TAFMSN
TAF AMD
KMSN 251256Z 2513/2612 29007KT P6SM BKN025 OVC035
     FM251900 28008KT P6SM SCT025
     FM260200 20004KT P6SM SCT150
     FM260900 14004KT P6SM BKN200
     FM261100 13005KT P6SM BKN200=



000
FTUS43 KMKX 251256 AAA
TAFMSN
TAF AMD
KMSN 251256Z 2513/2612 29007KT P6SM BKN025 OVC035
     FM251900 28008KT P6SM SCT025
     FM260200 20004KT P6SM SCT150
     FM260900 14004KT P6SM BKN200
     FM261100 13005KT P6SM BKN200=



000
FTUS43 KMKX 251120
TAFMKE
TAF
KMKE 251120Z 2512/2618 26009KT P6SM -SN OVC014
     FM251500 27010KT P6SM OVC030
     FM251900 26008KT P6SM BKN035
     FM252200 25007KT P6SM SCT140
     FM260600 VRB03KT P6SM SCT140=



000
FTUS43 KMKX 251120
TAFMSN
TAF
KMSN 251120Z 2512/2612 29008KT P6SM SCT025 BKN045
     FM251400 28008KT P6SM SCT015 BKN022
     FM251900 28008KT P6SM SCT025
     FM260200 20004KT P6SM SCT150
     FM260900 14004KT P6SM BKN200
     FM261100 13005KT P6SM BKN200=



000
FTUS43 KMKX 251120
TAFMKE
TAF
KMKE 251120Z 2512/2618 26009KT P6SM -SN OVC014
     FM251500 27010KT P6SM OVC030
     FM251900 26008KT P6SM BKN035
     FM252200 25007KT P6SM SCT140
     FM260600 VRB03KT P6SM SCT140=



000
FTUS43 KMKX 251120
TAFMSN
TAF
KMSN 251120Z 2512/2612 29008KT P6SM SCT025 BKN045
     FM251400 28008KT P6SM SCT015 BKN022
     FM251900 28008KT P6SM SCT025
     FM260200 20004KT P6SM SCT150
     FM260900 14004KT P6SM BKN200
     FM261100 13005KT P6SM BKN200=



000
FTUS43 KMKX 250934 AAB
TAFMSN
TAF AMD
KMSN 250934Z 2510/2606 28009KT P6SM OVC025
     FM251700 28007KT P6SM BKN015
     FM252100 25006KT P6SM BKN040
     FM252300 24005KT P6SM SCT045=



000
FTUS43 KMKX 250934 AAB
TAFMSN
TAF AMD
KMSN 250934Z 2510/2606 28009KT P6SM OVC025
     FM251700 28007KT P6SM BKN015
     FM252100 25006KT P6SM BKN040
     FM252300 24005KT P6SM SCT045=



000
FTUS43 KMKX 250906 AAC
TAFMKE
TAF AMD
KMKE 250906Z 2509/2612 27010KT P6SM -SN OVC013
     FM251400 28010KT P6SM SCT018 OVC020
     FM251700 28010KT P6SM OVC025
     FM252200 26009KT P6SM BKN035
     FM260000 25006KT P6SM SCT050=



000
FTUS43 KMKX 250906 AAC
TAFMKE
TAF AMD
KMKE 250906Z 2509/2612 27010KT P6SM -SN OVC013
     FM251400 28010KT P6SM SCT018 OVC020
     FM251700 28010KT P6SM OVC025
     FM252200 26009KT P6SM BKN035
     FM260000 25006KT P6SM SCT050=



000
FTUS43 KMKX 250719 AAB
TAFMKE
TAF AMD
KMKE 250719Z 2507/2612 26012G18KT P6SM -SN OVC025
     FM251000 28011KT P6SM SCT018 OVC030
     FM251700 28010KT P6SM OVC025
     FM252200 26009KT P6SM BKN035
     FM260000 25006KT P6SM SCT050=



000
FTUS43 KMKX 250719 AAB
TAFMKE
TAF AMD
KMKE 250719Z 2507/2612 26012G18KT P6SM -SN OVC025
     FM251000 28011KT P6SM SCT018 OVC030
     FM251700 28010KT P6SM OVC025
     FM252200 26009KT P6SM BKN035
     FM260000 25006KT P6SM SCT050=



000
FTUS43 KMKX 250701 AAA
TAFMSN
TAF AMD
KMSN 250701Z 2507/2606 28009KT P6SM OVC015
     FM251700 28007KT P6SM BKN015
     FM252100 25006KT P6SM BKN040
     FM252300 24005KT P6SM SCT045=



000
FTUS43 KMKX 250658 AAA
TAFMKE
TAF AMD
KMKE 250658Z 2507/2612 26011G18KT 5SM -SN OVC035
     FM250800 27011KT 6SM -SN SCT018 OVC035
     FM251000 28011KT P6SM SCT018 OVC030
     FM251700 28010KT P6SM OVC025
     FM252200 26009KT P6SM BKN035
     FM260000 25006KT P6SM SCT050=



000
FTUS43 KMKX 250658 AAA
TAFMKE
TAF AMD
KMKE 250658Z 2507/2612 26011G18KT 5SM -SN OVC035
     FM250800 27011KT 6SM -SN SCT018 OVC035
     FM251000 28011KT P6SM SCT018 OVC030
     FM251700 28010KT P6SM OVC025
     FM252200 26009KT P6SM BKN035
     FM260000 25006KT P6SM SCT050=



000
FTUS43 KMKX 250534
TAFMSN
TAF
KMSN 250534Z 2506/2606 28010KT P6SM SCT015 OVC022
     FM251700 28007KT P6SM BKN015
     FM252100 25006KT P6SM BKN040
     FM252300 24005KT P6SM SCT045=



000
FTUS43 KMKX 250534
TAFMKE
TAF
KMKE 250534Z 2506/2612 27010G20KT 4SM -SN OVC035
      TEMPO 2506/2508 2SM -SN BLSN BKN021
     FM250800 27012KT 4SM -SN SCT018 OVC030
     FM250900 28011KT P6SM SCT018 OVC030
     FM251700 28010KT P6SM OVC025
     FM252200 26009KT P6SM BKN035
     FM260000 25006KT P6SM SCT050=



000
FTUS43 KMKX 250534
TAFMSN
TAF
KMSN 250534Z 2506/2606 28010KT P6SM SCT015 OVC022
     FM251700 28007KT P6SM BKN015
     FM252100 25006KT P6SM BKN040
     FM252300 24005KT P6SM SCT045=



000
FTUS43 KMKX 250534
TAFMKE
TAF
KMKE 250534Z 2506/2612 27010G20KT 4SM -SN OVC035
      TEMPO 2506/2508 2SM -SN BLSN BKN021
     FM250800 27012KT 4SM -SN SCT018 OVC030
     FM250900 28011KT P6SM SCT018 OVC030
     FM251700 28010KT P6SM OVC025
     FM252200 26009KT P6SM BKN035
     FM260000 25006KT P6SM SCT050=



000
FTUS43 KMKX 250254 AAA
TAFMSN
TAF AMD
KMSN 250254Z 2503/2524 27011G20KT 2SM -SN BR OVC020
      TEMPO 2503/2505 1SM -SN BR BKN011
     FM250500 27008G16KT 2SM -SN BR OVC018
     FM250800 30008KT 5SM -SN OVC025
     FM250900 30008KT P6SM OVC025
     FM251600 29007KT P6SM BKN020
     FM252100 25006KT P6SM BKN050
     FM252200 24005KT P6SM SCT040=



000
FTUS43 KMKX 250254 AAA
TAFMSN
TAF AMD
KMSN 250254Z 2503/2524 27011G20KT 2SM -SN BR OVC020
      TEMPO 2503/2505 1SM -SN BR BKN011
     FM250500 27008G16KT 2SM -SN BR OVC018
     FM250800 30008KT 5SM -SN OVC025
     FM250900 30008KT P6SM OVC025
     FM251600 29007KT P6SM BKN020
     FM252100 25006KT P6SM BKN050
     FM252200 24005KT P6SM SCT040=



000
FTUS43 KMKX 250252 AAA
TAFMKE
TAF AMD
KMKE 250252Z 2503/2606 26015G26KT 2SM -SN BLSN SCT015 OVC030
      TEMPO 2503/2506 1SM -SN BLSN OVC015
     FM250600 27012G23KT 3SM -SN BLSN SCT015 OVC025
     FM250900 28010G18KT P6SM OVC025
     FM252200 26009KT P6SM BKN035
     FM260000 25006KT P6SM SCT040=



000
FTUS43 KMKX 242335
TAFMSN
TAF
KMSN 242335Z 2500/2524 27012G23KT 1 1/2SM -SN BR OVC020
      TEMPO 2500/2502 3/4SM -SN BR BKN008
     FM250300 27011G23KT 2SM -SN BR OVC018
     FM250800 30008KT 5SM -SN OVC025
     FM250900 30008KT P6SM OVC025
     FM251600 29007KT P6SM BKN020
     FM252100 25006KT P6SM BKN050
     FM252200 24005KT P6SM SCT040=



000
FTUS43 KMKX 242335
TAFMSN
TAF
KMSN 242335Z 2500/2524 27012G23KT 1 1/2SM -SN BR OVC020
      TEMPO 2500/2502 3/4SM -SN BR BKN008
     FM250300 27011G23KT 2SM -SN BR OVC018
     FM250800 30008KT 5SM -SN OVC025
     FM250900 30008KT P6SM OVC025
     FM251600 29007KT P6SM BKN020
     FM252100 25006KT P6SM BKN050
     FM252200 24005KT P6SM SCT040=



000
FTUS43 KMKX 242335
TAFMKE
TAF
KMKE 242335Z 2500/2606 26015G26KT 1 1/2SM -SN BR OVC020
      TEMPO 2500/2503 1SM -SN BLSN OVC011
     FM250300 27012G23KT 2SM -SN BLSN SCT015 OVC025
     FM250800 28010G18KT P6SM OVC020
     FM250900 28010G18KT P6SM OVC025
     FM252200 26009KT P6SM BKN035
     FM260000 25006KT P6SM SCT040=



000
FTUS43 KMKX 242335
TAFMKE
TAF
KMKE 242335Z 2500/2606 26015G26KT 1 1/2SM -SN BR OVC020
      TEMPO 2500/2503 1SM -SN BLSN OVC011
     FM250300 27012G23KT 2SM -SN BLSN SCT015 OVC025
     FM250800 28010G18KT P6SM OVC020
     FM250900 28010G18KT P6SM OVC025
     FM252200 26009KT P6SM BKN035
     FM260000 25006KT P6SM SCT040=



000
FTUS43 KMKX 242147 AAC
TAFMKE
TAF AMD
KMKE 242147Z 2422/2524 24016G29KT 1/2SM SN FZFG VV010
      TEMPO 2422/2423 3/4SM -SN OVC004
     FM242300 26017G28KT 1SM -SN OVC012
     FM250300 27015G23KT 3SM -SN BLSN OVC015
     FM250800 28012KT P6SM OVC020
     FM250900 28012KT P6SM OVC025
     FM252300 25009KT P6SM BKN025=



000
FTUS43 KMKX 242147 AAC
TAFMKE
TAF AMD
KMKE 242147Z 2422/2524 24016G29KT 1/2SM SN FZFG VV010
      TEMPO 2422/2423 3/4SM -SN OVC004
     FM242300 26017G28KT 1SM -SN OVC012
     FM250300 27015G23KT 3SM -SN BLSN OVC015
     FM250800 28012KT P6SM OVC020
     FM250900 28012KT P6SM OVC025
     FM252300 25009KT P6SM BKN025=



000
FTUS43 KMKX 242147 AAC
TAFMKE
TAF AMD
KMKE 242147Z 2422/2524 24016G29KT 1/2SM SN FZFG VV010
      TEMPO 2422/2423 3/4SM -SN OVC004
     FM242300 26017G28KT 1SM -SN OVC012
     FM250300 27015G23KT 3SM -SN BLSN OVC015
     FM250800 28012KT P6SM OVC020
     FM250900 28012KT P6SM OVC025
     FM252300 25009KT P6SM BKN025=



000
FTUS43 KMKX 242147 AAC
TAFMKE
TAF AMD
KMKE 242147Z 2422/2524 24016G29KT 1/2SM SN FZFG VV010
      TEMPO 2422/2423 3/4SM -SN OVC004
     FM242300 26017G28KT 1SM -SN OVC012
     FM250300 27015G23KT 3SM -SN BLSN OVC015
     FM250800 28012KT P6SM OVC020
     FM250900 28012KT P6SM OVC025
     FM252300 25009KT P6SM BKN025=



000
FTUS43 KMKX 242022 AAB
TAFMKE
TAF AMD
KMKE 242022Z 2420/2524 24016G22KT 1/4SM SN FG OVC009
      TEMPO 2420/2423 3/4SM -SN OVC004
     FM250000 26017G28KT 2SM -SN BLSN OVC015
     FM250300 27015G23KT 3SM -SN BLSN OVC015
     FM250800 28012KT P6SM OVC020
     FM250900 28012KT P6SM OVC025
     FM252300 25009KT P6SM BKN025=



000
FTUS43 KMKX 242022 AAB
TAFMKE
TAF AMD
KMKE 242022Z 2420/2524 24016G22KT 1/4SM SN FG OVC009
      TEMPO 2420/2423 3/4SM -SN OVC004
     FM250000 26017G28KT 2SM -SN BLSN OVC015
     FM250300 27015G23KT 3SM -SN BLSN OVC015
     FM250800 28012KT P6SM OVC020
     FM250900 28012KT P6SM OVC025
     FM252300 25009KT P6SM BKN025=



000
FTUS43 KMKX 241846 AAA
TAFMKE
TAF AMD
KMKE 241846Z 2419/2524 25014G22KT 2SM -SN BR BKN009 OVC016
      TEMPO 2419/2420 1SM -SN OVC007
     FM242000 26017G26KT 1SM -SN OVC007
      TEMPO 2420/2423 3/4SM -SN OVC004
     FM250000 26017G28KT 2SM -SN BLSN OVC015
     FM250300 27015G23KT 3SM -SN BLSN OVC015
     FM250800 28012KT P6SM OVC020
     FM250900 28012KT P6SM OVC025
     FM252300 25009KT P6SM BKN025=



000
FTUS43 KMKX 241846 AAA
TAFMKE
TAF AMD
KMKE 241846Z 2419/2524 25014G22KT 2SM -SN BR BKN009 OVC016
      TEMPO 2419/2420 1SM -SN OVC007
     FM242000 26017G26KT 1SM -SN OVC007
      TEMPO 2420/2423 3/4SM -SN OVC004
     FM250000 26017G28KT 2SM -SN BLSN OVC015
     FM250300 27015G23KT 3SM -SN BLSN OVC015
     FM250800 28012KT P6SM OVC020
     FM250900 28012KT P6SM OVC025
     FM252300 25009KT P6SM BKN025=



000
FTUS43 KMKX 241729
TAFMSN
TAF
KMSN 241729Z 2418/2518 28014G20KT 1/2SM SN OVC008
     FM242200 27014G23KT 1SM -SN BLSN OVC015
     FM250500 29012KT 3SM -SN BLSN OVC015
     FM250800 30010KT 5SM -SN BLSN OVC015
     FM250900 30009KT P6SM OVC020
     FM251100 29008KT P6SM OVC025
     FM251400 29008KT P6SM OVC045
     FM251700 28007KT P6SM BKN025=



000
FTUS43 KMKX 241729
TAFMKE
TAF
KMKE 241729Z 2418/2524 26016G24KT 3SM -RA BR OVC008
     FM241900 26017G26KT 2SM -RASN OVC008
     FM242000 26017G26KT 1SM -SN OVC007
      TEMPO 2420/2423 3/4SM -SN OVC004
     FM250000 26017G28KT 2SM -SN BLSN OVC015
     FM250300 27015G23KT 3SM -SN BLSN OVC015
     FM250800 28012KT P6SM OVC020
     FM250900 28012KT P6SM OVC025
     FM252300 25009KT P6SM BKN025=



000
FTUS43 KMKX 241657 AAF
TAFMKE
TAF AMD
KMKE 241657Z 2417/2518 27012G20KT 6SM -RA BR BKN009 BKN018 OVC026
     FM241730 26016G24KT 4SM -RASN OVC008
     FM241900 26017G26KT 2SM -SN OVC008
      TEMPO 2419/2423 1/2SM SN
     FM250000 26017G28KT 3SM -SN BLSN OVC015
     FM250700 28013KT 6SM -SN BLSN OVC020
     FM250800 28012KT 6SM BLSN OVC025
     FM251200 29013KT P6SM OVC025=



000
FTUS43 KMKX 241645 AAF
TAFMSN
TAF AMD
KMSN 241645Z 2417/2512 28008KT 1 1/2SM -SN BR BKN010 OVC017
      TEMPO 2417/2419 3/4SM -SN
     FM242100 27014G23KT 3SM -SN BLSN OVC015
     FM250600 29011KT 6SM -SN BLSN OVC020
     FM250900 30009KT 6SM BLSN OVC025
     FM251000 30009KT 6SM BLSN OVC035=



000
FTUS43 KMKX 241645 AAF
TAFMSN
TAF AMD
KMSN 241645Z 2417/2512 28008KT 1 1/2SM -SN BR BKN010 OVC017
      TEMPO 2417/2419 3/4SM -SN
     FM242100 27014G23KT 3SM -SN BLSN OVC015
     FM250600 29011KT 6SM -SN BLSN OVC020
     FM250900 30009KT 6SM BLSN OVC025
     FM251000 30009KT 6SM BLSN OVC035=



000
FTUS43 KMKX 241624 AAE
TAFMKE
TAF AMD
KMKE 241624Z 2416/2518 26013KT 6SM -RA BR BKN010 OVC017
     FM241730 26016G24KT 4SM -RASN OVC008
     FM241900 26017G26KT 2SM -SN OVC008
      TEMPO 2419/2423 1/2SM SN
     FM250000 26017G28KT 3SM -SN BLSN OVC015
     FM250700 28013KT 6SM -SN BLSN OVC020
     FM250800 28012KT 6SM BLSN OVC025
     FM251200 29013KT P6SM OVC025=



000
FTUS43 KMKX 241623 AAE
TAFMSN
TAF AMD
KMSN 241623Z 2416/2512 28009KT 5SM -RASN BR SCT008 OVC012
     FM241700 28012G21KT 1SM -SN OVC003
      TEMPO 2417/2419 3/4SM -SN
     FM242100 27014G23KT 3SM -SN BLSN OVC015
     FM250600 29011KT 6SM -SN BLSN OVC020
     FM250900 30009KT 6SM BLSN OVC025
     FM251000 30009KT 6SM BLSN OVC035=



000
FTUS43 KMKX 241623 AAE
TAFMSN
TAF AMD
KMSN 241623Z 2416/2512 28009KT 5SM -RASN BR SCT008 OVC012
     FM241700 28012G21KT 1SM -SN OVC003
      TEMPO 2417/2419 3/4SM -SN
     FM242100 27014G23KT 3SM -SN BLSN OVC015
     FM250600 29011KT 6SM -SN BLSN OVC020
     FM250900 30009KT 6SM BLSN OVC025
     FM251000 30009KT 6SM BLSN OVC035=



000
FTUS43 KMKX 241532 AAD
TAFMKE
TAF AMD
KMKE 241532Z 2416/2518 29011KT P6SM -RA OVC008
     FM241800 26016G24KT 6SM -RASN OVC008
     FM241900 26017G26KT 2SM -SN OVC008
      TEMPO 2419/2423 1/2SM SN
     FM250000 26017G28KT 3SM -SN BLSN OVC015
     FM250700 28013KT 6SM -SN BLSN OVC020
     FM250800 28012KT 6SM BLSN OVC025
     FM251200 29013KT P6SM OVC025=



000
FTUS43 KMKX 241532 AAD
TAFMSN
TAF AMD
KMSN 241532Z 2416/2512 30009G14KT 5SM -DZ BR OVC010
     FM241700 28012G21KT 1SM -SN OVC003
      TEMPO 2417/2419 1/2SM SN
     FM242100 27014G23KT 3SM -SN BLSN OVC015
     FM250600 29011KT 6SM -SN BLSN OVC020
     FM250900 30009KT 6SM BLSN OVC025
     FM251000 30009KT 6SM BLSN OVC035=



000
FTUS43 KMKX 241532 AAD
TAFMSN
TAF AMD
KMSN 241532Z 2416/2512 30009G14KT 5SM -DZ BR OVC010
     FM241700 28012G21KT 1SM -SN OVC003
      TEMPO 2417/2419 1/2SM SN
     FM242100 27014G23KT 3SM -SN BLSN OVC015
     FM250600 29011KT 6SM -SN BLSN OVC020
     FM250900 30009KT 6SM BLSN OVC025
     FM251000 30009KT 6SM BLSN OVC035=



000
FTUS43 KMKX 241511 AAC
TAFMKE
TAF AMD
KMKE 241511Z 2415/2518 29011KT P6SM -RA OVC008
      TEMPO 2415/2416 1 1/2SM -RA BR
     FM241600 27012KT 6SM -RA OVC008
     FM241800 26016G24KT 6SM -RASN OVC008
     FM241900 26017G26KT 2SM -SN OVC008
      TEMPO 2419/2423 1/2SM SN
     FM250000 26017G28KT 3SM -SN BLSN OVC015
     FM250700 28013KT 6SM -SN BLSN OVC020
     FM250800 28012KT 6SM BLSN OVC025
     FM251200 29013KT P6SM OVC025=



000
FTUS43 KMKX 241511 AAC
TAFMSN
TAF AMD
KMSN 241511Z 2415/2512 28011G19KT P6SM -DZ OVC009
     FM241700 28012G21KT 1SM -SN OVC003
      TEMPO 2417/2419 1/2SM SN
     FM242100 27014G23KT 3SM -SN BLSN OVC015
     FM250600 29011KT 6SM -SN BLSN OVC020
     FM250900 30009KT 6SM BLSN OVC025
     FM251000 30009KT 6SM BLSN OVC035=



000
FTUS43 KMKX 241511 AAC
TAFMSN
TAF AMD
KMSN 241511Z 2415/2512 28011G19KT P6SM -DZ OVC009
     FM241700 28012G21KT 1SM -SN OVC003
      TEMPO 2417/2419 1/2SM SN
     FM242100 27014G23KT 3SM -SN BLSN OVC015
     FM250600 29011KT 6SM -SN BLSN OVC020
     FM250900 30009KT 6SM BLSN OVC025
     FM251000 30009KT 6SM BLSN OVC035=



000
FTUS43 KMKX 241511 AAC
TAFMKE
TAF AMD
KMKE 241511Z 2415/2518 29011KT P6SM -RA OVC008
      TEMPO 2415/2416 1 1/2SM -RA BR
     FM241600 27012KT 6SM -RA OVC008
     FM241800 26016G24KT 6SM -RASN OVC008
     FM241900 26017G26KT 2SM -SN OVC008
      TEMPO 2419/2423 1/2SM SN
     FM250000 26017G28KT 3SM -SN BLSN OVC015
     FM250700 28013KT 6SM -SN BLSN OVC020
     FM250800 28012KT 6SM BLSN OVC025
     FM251200 29013KT P6SM OVC025=



000
FTUS43 KMKX 241445 AAB
TAFMKE
TAF AMD
KMKE 241445Z 2415/2518 29006KT 5SM BR OVC006
      TEMPO 2415/2416 1 1/2SM -RA BR
     FM241600 27012KT 6SM -RA OVC008
     FM241800 26016G24KT 6SM -RASN OVC008
     FM241900 26017G26KT 2SM -SN OVC008
      TEMPO 2419/2423 1/2SM SN
     FM250000 26017G28KT 3SM -SN BLSN OVC015
     FM250700 28013KT 6SM -SN BLSN OVC020
     FM250800 28012KT 6SM BLSN OVC025
     FM251200 29013KT P6SM OVC025=



000
FTUS43 KMKX 241445 AAB
TAFMKE
TAF AMD
KMKE 241445Z 2415/2518 29006KT 5SM BR OVC006
      TEMPO 2415/2416 1 1/2SM -RA BR
     FM241600 27012KT 6SM -RA OVC008
     FM241800 26016G24KT 6SM -RASN OVC008
     FM241900 26017G26KT 2SM -SN OVC008
      TEMPO 2419/2423 1/2SM SN
     FM250000 26017G28KT 3SM -SN BLSN OVC015
     FM250700 28013KT 6SM -SN BLSN OVC020
     FM250800 28012KT 6SM BLSN OVC025
     FM251200 29013KT P6SM OVC025=



000
FTUS43 KMKX 241444 AAB
TAFMSN
TAF AMD
KMSN 241444Z 2415/2512 29009KT P6SM BKN008 OVC012
     FM241700 28012G21KT 1SM -SN OVC003
      TEMPO 2417/2419 1/2SM SN
     FM242100 27014G23KT 3SM -SN BLSN OVC015
     FM250600 29011KT 6SM -SN BLSN OVC020
     FM250900 30009KT 6SM BLSN OVC025
     FM251000 30009KT 6SM BLSN OVC035=



000
FTUS43 KMKX 241444 AAB
TAFMSN
TAF AMD
KMSN 241444Z 2415/2512 29009KT P6SM BKN008 OVC012
     FM241700 28012G21KT 1SM -SN OVC003
      TEMPO 2417/2419 1/2SM SN
     FM242100 27014G23KT 3SM -SN BLSN OVC015
     FM250600 29011KT 6SM -SN BLSN OVC020
     FM250900 30009KT 6SM BLSN OVC025
     FM251000 30009KT 6SM BLSN OVC035=



000
FTUS43 KMKX 241346 AAA
TAFMKE
TAF AMD
KMKE 241346Z 2414/2518 27006KT 6SM -DZ BR OVC004
      TEMPO 2414/2416 1 1/2SM -RA BR
     FM241600 27012KT 6SM -RA OVC008
     FM241800 26016G24KT 6SM -RASN OVC008
     FM241900 26017G26KT 2SM -SN OVC008
      TEMPO 2419/2423 1/2SM SN
     FM250000 26017G28KT 3SM -SN BLSN OVC015
     FM250700 28013KT 6SM -SN BLSN OVC020
     FM250800 28012KT 6SM BLSN OVC025
     FM251200 29013KT P6SM OVC025=



000
FTUS43 KMKX 241346 AAA
TAFMKE
TAF AMD
KMKE 241346Z 2414/2518 27006KT 6SM -DZ BR OVC004
      TEMPO 2414/2416 1 1/2SM -RA BR
     FM241600 27012KT 6SM -RA OVC008
     FM241800 26016G24KT 6SM -RASN OVC008
     FM241900 26017G26KT 2SM -SN OVC008
      TEMPO 2419/2423 1/2SM SN
     FM250000 26017G28KT 3SM -SN BLSN OVC015
     FM250700 28013KT 6SM -SN BLSN OVC020
     FM250800 28012KT 6SM BLSN OVC025
     FM251200 29013KT P6SM OVC025=



000
FTUS43 KMKX 241345 AAA
TAFMSN
TAF AMD
KMSN 241345Z 2414/2512 30008KT 6SM -DZ OVC003
      TEMPO 2414/2415 SCT004 OVC010
     FM241500 29010G17KT 6SM -RASN OVC003
     FM241700 28012G21KT 1SM -SN OVC003
      TEMPO 2417/2419 1/2SM SN
     FM242100 27014G23KT 3SM -SN BLSN OVC015
     FM250600 29011KT 6SM -SN BLSN OVC020
     FM250900 30009KT 6SM BLSN OVC025
     FM251000 30009KT 6SM BLSN OVC035=



000
FTUS43 KMKX 241345 AAA
TAFMSN
TAF AMD
KMSN 241345Z 2414/2512 30008KT 6SM -DZ OVC003
      TEMPO 2414/2415 SCT004 OVC010
     FM241500 29010G17KT 6SM -RASN OVC003
     FM241700 28012G21KT 1SM -SN OVC003
      TEMPO 2417/2419 1/2SM SN
     FM242100 27014G23KT 3SM -SN BLSN OVC015
     FM250600 29011KT 6SM -SN BLSN OVC020
     FM250900 30009KT 6SM BLSN OVC025
     FM251000 30009KT 6SM BLSN OVC035=



000
FTUS43 KMKX 241157
TAFMSN
TAF
KMSN 241157Z 2412/2512 30008KT 6SM -RA OVC003
     FM241500 29010G17KT 6SM -RASN OVC003
     FM241700 28012G21KT 1SM -SN OVC003
      TEMPO 2417/2419 1/2SM SN
     FM242100 27014G23KT 3SM -SN BLSN OVC015
     FM250600 29011KT 6SM -SN BLSN OVC020
     FM250900 30009KT 6SM BLSN OVC025
     FM251000 30009KT 6SM BLSN OVC035=



000
FTUS43 KMKX 241157
TAFMKE
TAF
KMKE 241157Z 2412/2518 27006KT 6SM -DZ BR OVC004
     FM241600 27012KT 6SM -RA OVC008
     FM241800 26016G24KT 6SM -RASN OVC008
     FM241900 26017G26KT 2SM -SN OVC008
      TEMPO 2419/2423 1/2SM SN
     FM250000 26017G28KT 3SM -SN BLSN OVC015
     FM250700 28013KT 6SM -SN BLSN OVC020
     FM250800 28012KT 6SM BLSN OVC025
     FM251200 29013KT P6SM OVC025=



000
FTUS43 KMKX 241157
TAFMSN
TAF
KMSN 241157Z 2412/2512 30008KT 6SM -RA OVC003
     FM241500 29010G17KT 6SM -RASN OVC003
     FM241700 28012G21KT 1SM -SN OVC003
      TEMPO 2417/2419 1/2SM SN
     FM242100 27014G23KT 3SM -SN BLSN OVC015
     FM250600 29011KT 6SM -SN BLSN OVC020
     FM250900 30009KT 6SM BLSN OVC025
     FM251000 30009KT 6SM BLSN OVC035=



000
FTUS43 KMKX 241157
TAFMKE
TAF
KMKE 241157Z 2412/2518 27006KT 6SM -DZ BR OVC004
     FM241600 27012KT 6SM -RA OVC008
     FM241800 26016G24KT 6SM -RASN OVC008
     FM241900 26017G26KT 2SM -SN OVC008
      TEMPO 2419/2423 1/2SM SN
     FM250000 26017G28KT 3SM -SN BLSN OVC015
     FM250700 28013KT 6SM -SN BLSN OVC020
     FM250800 28012KT 6SM BLSN OVC025
     FM251200 29013KT P6SM OVC025=



000
FTUS43 KMKX 241020 AAB
TAFMSN
TAF AMD
KMSN 241020Z 2410/2506 30007KT 3SM -DZ BR OVC003
     FM241300 30010KT 2SM -SHRA OVC003
     FM241600 30013G22KT 1SM -RASN OVC003
     FM241800 29015G26KT 3/4SM -SN BR OVC008
     FM250000 28013G24KT 4SM -SN BLSN OVC013
     FM250300 29010G18KT 6SM -SN OVC018=



000
FTUS43 KMKX 241020 AAB
TAFMSN
TAF AMD
KMSN 241020Z 2410/2506 30007KT 3SM -DZ BR OVC003
     FM241300 30010KT 2SM -SHRA OVC003
     FM241600 30013G22KT 1SM -RASN OVC003
     FM241800 29015G26KT 3/4SM -SN BR OVC008
     FM250000 28013G24KT 4SM -SN BLSN OVC013
     FM250300 29010G18KT 6SM -SN OVC018=



000
FTUS43 KMKX 241019 AAA
TAFMKE
TAF AMD
KMKE 241019Z 2410/2512 27005KT 3SM -RA BR OVC003
      TEMPO 2410/2412 SCT003 BKN010 OVC025
     FM241600 28012G20KT 3SM -RA BR OVC008
     FM241800 27016G23KT 3SM -RASN BR OVC008
     FM242000 27017G25KT 3/4SM -SN BR OVC010
     FM250000 27017G28KT 4SM -SN OVC015
     FM250300 27014G24KT 6SM -SN BLSN OVC020
     FM250700 28012G19KT 6SM -SN BLSN OVC035=



000
FTUS43 KMKX 241019 AAA
TAFMKE
TAF AMD
KMKE 241019Z 2410/2512 27005KT 3SM -RA BR OVC003
      TEMPO 2410/2412 SCT003 BKN010 OVC025
     FM241600 28012G20KT 3SM -RA BR OVC008
     FM241800 27016G23KT 3SM -RASN BR OVC008
     FM242000 27017G25KT 3/4SM -SN BR OVC010
     FM250000 27017G28KT 4SM -SN OVC015
     FM250300 27014G24KT 6SM -SN BLSN OVC020
     FM250700 28012G19KT 6SM -SN BLSN OVC035=



000
FTUS43 KMKX 240621 AAA
TAFMSN
TAF AMD
KMSN 240621Z 2406/2506 00000KT 1/4SM -RA FG OVC002
     FM240900 30007KT 1SM -RA BR OVC003
     FM241300 30010KT 2SM -SHRA OVC003
     FM241600 30013G22KT 1SM -RASN OVC003
     FM241800 29015G26KT 3/4SM -SN BR OVC008
     FM250000 28013G24KT 4SM -SN BLSN OVC013
     FM250300 29010G18KT 6SM -SN OVC018=



000
FTUS43 KMKX 240621 AAA
TAFMSN
TAF AMD
KMSN 240621Z 2406/2506 00000KT 1/4SM -RA FG OVC002
     FM240900 30007KT 1SM -RA BR OVC003
     FM241300 30010KT 2SM -SHRA OVC003
     FM241600 30013G22KT 1SM -RASN OVC003
     FM241800 29015G26KT 3/4SM -SN BR OVC008
     FM250000 28013G24KT 4SM -SN BLSN OVC013
     FM250300 29010G18KT 6SM -SN OVC018=



000
FTUS43 KMKX 240520
TAFMKE
TAF
KMKE 240520Z 2406/2512 00000KT 1/2SM -RA FG OVC003
     FM241100 27006KT 1 1/2SM -RA BR OVC003
     FM241600 28012G20KT 3SM -RA BR OVC008
     FM241800 27016G23KT 3SM -RASN BR OVC008
     FM242000 27017G25KT 3/4SM -SN BR OVC010
     FM250000 27017G28KT 4SM -SN OVC015
     FM250300 27014G24KT 6SM -SN BLSN OVC020
     FM250700 28012G19KT 6SM -SN BLSN OVC035=



000
FTUS43 KMKX 240520
TAFMSN
TAF
KMSN 240520Z 2406/2506 00000KT 1/2SM -RA FG OVC002
     FM240900 30007KT 1SM -RA BR OVC003
     FM241300 30010KT 2SM -SHRA OVC003
     FM241600 30013G22KT 1SM -RASN OVC003
     FM241800 29015G26KT 3/4SM -SN BR OVC008
     FM250000 28013G24KT 4SM -SN BLSN OVC013
     FM250300 29010G18KT 6SM -SN OVC018=



000
FTUS43 KMKX 240520
TAFMKE
TAF
KMKE 240520Z 2406/2512 00000KT 1/2SM -RA FG OVC003
     FM241100 27006KT 1 1/2SM -RA BR OVC003
     FM241600 28012G20KT 3SM -RA BR OVC008
     FM241800 27016G23KT 3SM -RASN BR OVC008
     FM242000 27017G25KT 3/4SM -SN BR OVC010
     FM250000 27017G28KT 4SM -SN OVC015
     FM250300 27014G24KT 6SM -SN BLSN OVC020
     FM250700 28012G19KT 6SM -SN BLSN OVC035=



000
FTUS43 KMKX 240520
TAFMSN
TAF
KMSN 240520Z 2406/2506 00000KT 1/2SM -RA FG OVC002
     FM240900 30007KT 1SM -RA BR OVC003
     FM241300 30010KT 2SM -SHRA OVC003
     FM241600 30013G22KT 1SM -RASN OVC003
     FM241800 29015G26KT 3/4SM -SN BR OVC008
     FM250000 28013G24KT 4SM -SN BLSN OVC013
     FM250300 29010G18KT 6SM -SN OVC018=



000
FTUS43 KMKX 240302 AAA
TAFMKE
TAF AMD
KMKE 240302Z 2403/2506 12005KT 3SM -RA BR OVC002
     FM240700 VRB03KT 3/4SM -RA BR OVC002
     FM241200 28007KT 3SM -RA OVC008
     FM241600 29011G20KT 3SM -RA OVC010
     FM241900 29015G23KT 3SM -RASN OVC010
     FM242100 27016G25KT 1SM -SN OVC012
     FM250300 27014G24KT 6SM -SN BLSN OVC020=



000
FTUS43 KMKX 232320
TAFMKE
TAF
KMKE 232320Z 2400/2506 14008KT 3SM -RA BR OVC005
     FM240300 12005KT 1 1/2SM -RA BR OVC003
     FM240700 VRB03KT 1SM -RA BR OVC003
     FM241200 28007KT 3SM -RA OVC008
     FM241600 29011G20KT 3SM -RA OVC010
     FM241900 29015G23KT 3SM -RASN OVC010
     FM242100 27016G25KT 1SM -SN OVC012
     FM250300 27014G24KT 6SM -SN BLSN OVC020=



000
FTUS43 KMKX 232320
TAFMSN
TAF
KMSN 232320Z 2400/2424 13006KT 2SM -RA BR OVC005
     FM240400 VRB03KT 3/4SM -RA BR OVC003
     FM240900 31007KT 1SM -RA BR OVC003
     FM241500 31011G22KT 1SM -SN OVC010
     FM241800 30014G24KT 3/4SM -SN BLSN OVC010=



000
FTUS43 KMKX 232320
TAFMSN
TAF
KMSN 232320Z 2400/2424 13006KT 2SM -RA BR OVC005
     FM240400 VRB03KT 3/4SM -RA BR OVC003
     FM240900 31007KT 1SM -RA BR OVC003
     FM241500 31011G22KT 1SM -SN OVC010
     FM241800 30014G24KT 3/4SM -SN BLSN OVC010=



000
FTUS43 KMKX 232320
TAFMKE
TAF
KMKE 232320Z 2400/2506 14008KT 3SM -RA BR OVC005
     FM240300 12005KT 1 1/2SM -RA BR OVC003
     FM240700 VRB03KT 1SM -RA BR OVC003
     FM241200 28007KT 3SM -RA OVC008
     FM241600 29011G20KT 3SM -RA OVC010
     FM241900 29015G23KT 3SM -RASN OVC010
     FM242100 27016G25KT 1SM -SN OVC012
     FM250300 27014G24KT 6SM -SN BLSN OVC020=



000
FTUS43 KMKX 232227 AAE
TAFMKE
TAF AMD
KMKE 232227Z 2322/2424 15009KT 3SM -RA BR BKN006 OVC010
     FM240200 12008KT 1SM -RA BR OVC004
     FM241200 27008KT 3SM -RA BR OVC005
     FM241500 27012G20KT 3SM -RA OVC003
     FM241900 26018G28KT 3SM -RASN OVC005
     FM242100 26022G34KT 2SM -SN OVC008=



000
FTUS43 KMKX 232227 AAE
TAFMKE
TAF AMD
KMKE 232227Z 2322/2424 15009KT 3SM -RA BR BKN006 OVC010
     FM240200 12008KT 1SM -RA BR OVC004
     FM241200 27008KT 3SM -RA BR OVC005
     FM241500 27012G20KT 3SM -RA OVC003
     FM241900 26018G28KT 3SM -RASN OVC005
     FM242100 26022G34KT 2SM -SN OVC008=



000
FTUS43 KMKX 232139 AAD
TAFMKE
TAF AMD
KMKE 232139Z 2322/2424 16009KT 3SM -RA BR FEW005 OVC011
     FM240200 12008KT 1SM -RA BR OVC003
     FM241200 27008KT 3SM -RA BR OVC005
     FM241500 27012G20KT 3SM -RA OVC003
     FM241900 26018G28KT 3SM -RASN OVC005
     FM242100 26022G34KT 2SM -SN OVC008=



000
FTUS43 KMKX 232139 AAD
TAFMKE
TAF AMD
KMKE 232139Z 2322/2424 16009KT 3SM -RA BR FEW005 OVC011
     FM240200 12008KT 1SM -RA BR OVC003
     FM241200 27008KT 3SM -RA BR OVC005
     FM241500 27012G20KT 3SM -RA OVC003
     FM241900 26018G28KT 3SM -RASN OVC005
     FM242100 26022G34KT 2SM -SN OVC008=



000
FTUS43 KMKX 232126 AAC
TAFMKE
TAF AMD
KMKE 232126Z 2321/2424 16010KT 2SM -RA BR SCT005 OVC011
     FM232200 15011KT 2SM -RA BR OVC008
     FM240200 12008KT 3/4SM -RA BR OVC003
     FM240600 11005KT 1SM -RA BR OVC003
     FM241200 27008KT 3SM -RA BR OVC005
     FM241500 27012G20KT 3SM -RA OVC003
     FM241900 26018G28KT 3SM -RASN OVC005
     FM242100 26022G34KT 2SM -SN OVC008=



000
FTUS43 KMKX 232126 AAC
TAFMKE
TAF AMD
KMKE 232126Z 2321/2424 16010KT 2SM -RA BR SCT005 OVC011
     FM232200 15011KT 2SM -RA BR OVC008
     FM240200 12008KT 3/4SM -RA BR OVC003
     FM240600 11005KT 1SM -RA BR OVC003
     FM241200 27008KT 3SM -RA BR OVC005
     FM241500 27012G20KT 3SM -RA OVC003
     FM241900 26018G28KT 3SM -RASN OVC005
     FM242100 26022G34KT 2SM -SN OVC008=



000
FTUS43 KMKX 232126 AAC
TAFMKE
TAF AMD
KMKE 232126Z 2321/2424 16010KT 2SM -RA BR SCT005 OVC011
     FM232200 15011KT 2SM -RA BR OVC008
     FM240200 12008KT 3/4SM -RA BR OVC003
     FM240600 11005KT 1SM -RA BR OVC003
     FM241200 27008KT 3SM -RA BR OVC005
     FM241500 27012G20KT 3SM -RA OVC003
     FM241900 26018G28KT 3SM -RASN OVC005
     FM242100 26022G34KT 2SM -SN OVC008=



000
FTUS43 KMKX 232126 AAC
TAFMKE
TAF AMD
KMKE 232126Z 2321/2424 16010KT 2SM -RA BR SCT005 OVC011
     FM232200 15011KT 2SM -RA BR OVC008
     FM240200 12008KT 3/4SM -RA BR OVC003
     FM240600 11005KT 1SM -RA BR OVC003
     FM241200 27008KT 3SM -RA BR OVC005
     FM241500 27012G20KT 3SM -RA OVC003
     FM241900 26018G28KT 3SM -RASN OVC005
     FM242100 26022G34KT 2SM -SN OVC008=



000
FTUS43 KMKX 232111 AAB
TAFMKE
TAF AMD
KMKE 232111Z 2321/2424 15009KT 3SM -RA BR BKN005 OVC012
     FM232200 15011KT 2SM -RA BR OVC008
     FM240200 12008KT 3/4SM -RA BR OVC003
     FM240600 11005KT 1SM -RA BR OVC003
     FM241200 27008KT 3SM -RA BR OVC005
     FM241500 27012G20KT 3SM -RA OVC003
     FM241900 26018G28KT 3SM -RASN OVC005
     FM242100 26022G34KT 2SM -SN OVC008=



000
FTUS43 KMKX 232111 AAB
TAFMKE
TAF AMD
KMKE 232111Z 2321/2424 15009KT 3SM -RA BR BKN005 OVC012
     FM232200 15011KT 2SM -RA BR OVC008
     FM240200 12008KT 3/4SM -RA BR OVC003
     FM240600 11005KT 1SM -RA BR OVC003
     FM241200 27008KT 3SM -RA BR OVC005
     FM241500 27012G20KT 3SM -RA OVC003
     FM241900 26018G28KT 3SM -RASN OVC005
     FM242100 26022G34KT 2SM -SN OVC008=



000
FTUS43 KMKX 232000 AAA
TAFMKE
TAF AMD
KMKE 232000Z 2320/2424 15007KT 3SM -RA BR FEW060 OVC080
     FM232200 15011KT 2SM RA BR OVC010
     FM240200 12008KT 3/4SM RA BR OVC003
     FM240600 11005KT 1SM -RA BR OVC003
     FM241200 27008KT 3SM -RA BR OVC005
     FM241500 27012G20KT 3SM -RA OVC003
     FM241900 26018G28KT 3SM -RASN OVC005
     FM242100 26022G34KT 2SM -SN OVC008=



000
FTUS43 KMKX 232000 AAA
TAFMKE
TAF AMD
KMKE 232000Z 2320/2424 15007KT 3SM -RA BR FEW060 OVC080
     FM232200 15011KT 2SM RA BR OVC010
     FM240200 12008KT 3/4SM RA BR OVC003
     FM240600 11005KT 1SM -RA BR OVC003
     FM241200 27008KT 3SM -RA BR OVC005
     FM241500 27012G20KT 3SM -RA OVC003
     FM241900 26018G28KT 3SM -RASN OVC005
     FM242100 26022G34KT 2SM -SN OVC008=



000
FTUS43 KMKX 232000 AAA
TAFMKE
TAF AMD
KMKE 232000Z 2320/2424 15007KT 3SM -RA BR FEW060 OVC080
     FM232200 15011KT 2SM RA BR OVC010
     FM240200 12008KT 3/4SM RA BR OVC003
     FM240600 11005KT 1SM -RA BR OVC003
     FM241200 27008KT 3SM -RA BR OVC005
     FM241500 27012G20KT 3SM -RA OVC003
     FM241900 26018G28KT 3SM -RASN OVC005
     FM242100 26022G34KT 2SM -SN OVC008=



000
FTUS43 KMKX 231959 AAA
TAFMSN
TAF AMD
KMSN 231959Z 2320/2418 16007KT 3SM -RA BR BKN005 OVC070
     FM240000 12008KT 1SM -RA BR OVC003
     FM240300 10004KT 3/4SM -RA BR OVC003
     FM240600 VRB03KT 3/4SM -RA OVC003
     FM241100 30008KT 2SM -RA OVC003
     FM241600 30012G22KT 2SM -RASN OVC003=



000
FTUS43 KMKX 231959 AAA
TAFMSN
TAF AMD
KMSN 231959Z 2320/2418 16007KT 3SM -RA BR BKN005 OVC070
     FM240000 12008KT 1SM -RA BR OVC003
     FM240300 10004KT 3/4SM -RA BR OVC003
     FM240600 VRB03KT 3/4SM -RA OVC003
     FM241100 30008KT 2SM -RA OVC003
     FM241600 30012G22KT 2SM -RASN OVC003=



000
FTUS43 KMKX 231726
TAFMKE
TAF
KMKE 231726Z 2318/2424 18009KT 6SM -RA BR OVC050
     FM232000 16010KT 3SM -RA BR OVC015
     FM232200 15011KT 2SM RA BR OVC010
     FM240200 12008KT 3/4SM RA BR OVC003
     FM240600 11005KT 1SM -RA BR OVC003
     FM241200 27008KT 3SM -RA BR OVC005
     FM241500 27012G20KT 3SM -RA OVC003
     FM241900 26018G28KT 3SM -RASN OVC005
     FM242100 26022G34KT 2SM -SN OVC008=



000
FTUS43 KMKX 231726
TAFMSN
TAF
KMSN 231726Z 2318/2418 17008KT 2SM -RA BR OVC008
     FM240000 12008KT 1SM -RA BR OVC003
     FM240300 10004KT 3/4SM -RA BR OVC003
     FM240600 VRB03KT 3/4SM -RA OVC003
     FM241100 30008KT 2SM -RA OVC003
     FM241600 30012G22KT 2SM -RASN OVC003=



000
FTUS43 KMKX 231726
TAFMSN
TAF
KMSN 231726Z 2318/2418 17008KT 2SM -RA BR OVC008
     FM240000 12008KT 1SM -RA BR OVC003
     FM240300 10004KT 3/4SM -RA BR OVC003
     FM240600 VRB03KT 3/4SM -RA OVC003
     FM241100 30008KT 2SM -RA OVC003
     FM241600 30012G22KT 2SM -RASN OVC003=



000
FTUS43 KMKX 231726
TAFMKE
TAF
KMKE 231726Z 2318/2424 18009KT 6SM -RA BR OVC050
     FM232000 16010KT 3SM -RA BR OVC015
     FM232200 15011KT 2SM RA BR OVC010
     FM240200 12008KT 3/4SM RA BR OVC003
     FM240600 11005KT 1SM -RA BR OVC003
     FM241200 27008KT 3SM -RA BR OVC005
     FM241500 27012G20KT 3SM -RA OVC003
     FM241900 26018G28KT 3SM -RASN OVC005
     FM242100 26022G34KT 2SM -SN OVC008=



000
FTUS43 KMKX 231702 AAB
TAFMKE
TAF AMD
KMKE 231702Z 2317/2418 19008KT 6SM -RA BR SCT050 BKN070 OVC090
     FM232000 16010KT 3SM RA BR OVC015
     FM240200 12008KT 3/4SM RA OVC007
     FM240600 11005KT 1SM -RA OVC003
     FM241000 23004KT 2SM -RA OVC008
     FM241200 27008KT 3SM -RA OVC015
     FM241500 27012G20KT 3SM -RA OVC008
     FM241700 26018G28KT 3SM -RASN OVC015=



000
FTUS43 KMKX 231702 AAB
TAFMKE
TAF AMD
KMKE 231702Z 2317/2418 19008KT 6SM -RA BR SCT050 BKN070 OVC090
     FM232000 16010KT 3SM RA BR OVC015
     FM240200 12008KT 3/4SM RA OVC007
     FM240600 11005KT 1SM -RA OVC003
     FM241000 23004KT 2SM -RA OVC008
     FM241200 27008KT 3SM -RA OVC015
     FM241500 27012G20KT 3SM -RA OVC008
     FM241700 26018G28KT 3SM -RASN OVC015=



000
FTUS43 KMKX 231622 AAA
TAFMSN
TAF AMD
KMSN 231622Z 2316/2412 18010KT 4SM -RA BR OVC009
     FM231800 18010KT 2SM -RA BR OVC005
     FM240000 12008KT 3/4SM RA OVC003
     FM240300 10004KT 1/2SM RA OVC003
     FM240400 VRB03KT 3/4SM -RA OVC003
     FM241100 30008KT 2SM -RA OVC003=



000
FTUS43 KMKX 231622 AAA
TAFMSN
TAF AMD
KMSN 231622Z 2316/2412 18010KT 4SM -RA BR OVC009
     FM231800 18010KT 2SM -RA BR OVC005
     FM240000 12008KT 3/4SM RA OVC003
     FM240300 10004KT 1/2SM RA OVC003
     FM240400 VRB03KT 3/4SM -RA OVC003
     FM241100 30008KT 2SM -RA OVC003=



    US Dept of Commerce
    National Oceanic and Atmospheric Administration
    National Weather Service
    1325 East West Highway
    Silver Spring, MD 20910
    Page Author: NWS Internet Services Team
Disclaimer
Information Quality
Credits
Glossary
Privacy Policy
Freedom of Information Act (FOIA)
About Us
Career Opportunities